Time,TemperatureF,DewpointF,PressureIn,WindDirection,WindDirectionDegrees,WindSpeedMPH,WindSpeedGustMPH,Humidity,HourlyPrecipIn,Conditions,Clouds,dailyrainin,SoftwareType,DateUTC
2013-04-17 00:07:00,62.3,57.0,30.19,ESE,115,1.0,2.0,83,0.00,,,0.02,weatherlink.com 1.10,2013-04-17 04:07:00,
2013-04-17 00:22:00,62.4,57.0,30.19,SSE,164,0.0,1.0,83,0.00,,,0.02,weatherlink.com 1.10,2013-04-17 04:22:00,
2013-04-17 00:37:00,63.1,57.0,30.19,SSE,153,1.0,4.0,81,0.00,,,0.00,weatherlink.com 1.10,2013-04-17 04:37:00,
2013-04-17 00:52:00,63.2,57.0,30.19,ESE,115,0.0,2.0,81,0.00,,,0.00,weatherlink.com 1.10,2013-04-17 04:52:00,
2013-04-17 01:07:00,63.0,57.0,30.19,SE,136,0.0,2.0,81,0.00,,,0.00,weatherlink.com 1.10,2013-04-17 05:07:00,
2013-04-17 01:22:00,62.7,57.0,30.19,SE,140,0.0,1.0,81,0.00,,,0.00,weatherlink.com 1.10,2013-04-17 05:22:00,
2013-04-17 01:37:00,62.3,57.0,30.19,SE,140,0.0,1.0,82,0.00,,,0.00,weatherlink.com 1.10,2013-04-17 05:37:00,
2013-04-17 01:52:00,62.2,57.0,30.18,SSE,148,1.0,1.0,82,0.00,,,0.00,weatherlink.com 1.10,2013-04-17 05:52:00,
2013-04-17 02:07:00,62.0,57.0,30.17,NE,41,0.0,3.0,83,0.00,,,0.00,weatherlink.com 1.10,2013-04-17 06:07:00,
2013-04-17 02:22:00,62.4,57.0,30.18,SW,231,0.0,3.0,83,0.00,,,0.00,weatherlink.com 1.10,2013-04-17 06:22:00,
2013-04-17 02:38:00,62.7,57.0,30.17,South,182,0.0,2.0,82,0.00,,,0.00,weatherlink.com 1.10,2013-04-17 06:38:00,
2013-04-17 02:53:00,62.8,57.0,30.16,SE,144,1.0,2.0,82,0.00,,,0.00,weatherlink.com 1.10,2013-04-17 06:53:00,
2013-04-17 03:08:00,62.7,57.0,30.16,SSE,168,0.0,2.0,82,0.00,,,0.00,weatherlink.com 1.10,2013-04-17 07:08:00,
2013-04-17 03:23:00,62.6,57.0,30.16,SW,227,0.0,4.0,82,0.00,,,0.00,weatherlink.com 1.10,2013-04-17 07:23:00,
2013-04-17 03:38:00,62.5,57.0,30.16,ENE,67,0.0,1.0,82,0.00,,,0.00,weatherlink.com 1.10,2013-04-17 07:38:00,
2013-04-17 03:53:00,61.9,57.0,30.17,ENE,65,0.0,3.0,83,0.00,,,0.00,weatherlink.com 1.10,2013-04-17 07:53:00,
2013-04-17 04:08:00,60.5,56.0,30.17,ENE,65,0.0,1.0,86,0.00,,,0.00,weatherlink.com 1.10,2013-04-17 08:08:00,
2013-04-17 04:23:00,59.8,56.0,30.16,ENE,65,0.0,1.0,88,0.00,,,0.00,weatherlink.com 1.10,2013-04-17 08:23:00,
2013-04-17 04:38:00,59.6,56.0,30.16,ESE,113,3.0,3.0,89,0.00,,,0.00,weatherlink.com 1.10,2013-04-17 08:38:00,
2013-04-17 04:53:00,59.2,56.0,30.16,SE,143,2.0,4.0,90,0.00,,,0.00,weatherlink.com 1.10,2013-04-17 08:53:00,
2013-04-17 05:08:00,58.9,56.0,30.16,SE,126,2.0,3.0,90,0.00,,,0.00,weatherlink.com 1.10,2013-04-17 09:08:00,
2013-04-17 05:23:00,58.4,56.0,30.17,SE,126,1.0,1.0,90,0.00,,,0.00,weatherlink.com 1.10,2013-04-17 09:23:00,
2013-04-17 05:38:00,58.2,56.0,30.18,SE,126,0.0,1.0,91,0.00,,,0.00,weatherlink.com 1.10,2013-04-17 09:38:00,
2013-04-17 05:53:00,58.1,56.0,30.17,SSE,163,1.0,3.0,92,0.00,,,0.00,weatherlink.com 1.10,2013-04-17 09:53:00,
2013-04-17 06:08:00,59.0,57.0,30.18,SW,219,0.0,6.0,92,0.00,,,0.00,weatherlink.com 1.10,2013-04-17 10:08:00,
2013-04-17 06:23:00,60.5,57.0,30.17,South,170,3.0,4.0,88,0.00,,,0.00,weatherlink.com 1.10,2013-04-17 10:23:00,
2013-04-17 06:38:00,61.3,57.0,30.17,ESE,115,1.0,3.0,86,0.00,,,0.00,weatherlink.com 1.10,2013-04-17 10:38:00,
2013-04-17 06:53:00,61.9,57.0,30.17,North,9,0.0,4.0,85,0.00,,,0.00,weatherlink.com 1.10,2013-04-17 10:53:00,
2013-04-17 07:23:00,62.5,57.0,30.17,North,355,0.0,3.0,83,0.00,,,0.00,weatherlink.com 1.10,2013-04-17 11:23:00,
2013-04-17 07:38:00,62.9,58.0,30.17,West,275,0.0,2.0,83,0.00,,,0.00,weatherlink.com 1.10,2013-04-17 11:38:00,
2013-04-17 07:53:00,63.4,58.0,30.17,SE,130,1.0,5.0,82,0.00,,,0.00,weatherlink.com 1.10,2013-04-17 11:53:00,
2013-04-17 08:08:00,63.2,58.0,30.16,ESE,104,1.0,3.0,83,0.00,,,0.00,weatherlink.com 1.10,2013-04-17 12:08:00,
2013-04-17 08:23:00,64.1,59.0,30.16,South,169,0.0,4.0,84,0.00,,,0.00,weatherlink.com 1.10,2013-04-17 12:23:00,
2013-04-17 08:38:00,65.0,59.0,30.15,ESE,120,1.0,2.0,80,0.00,,,0.00,weatherlink.com 1.10,2013-04-17 12:38:00,
2013-04-17 08:53:00,66.1,60.0,30.15,NNW,346,0.0,4.0,80,0.00,,,0.00,weatherlink.com 1.10,2013-04-17 12:53:00,
2013-04-17 09:08:00,67.6,60.0,30.14,WSW,238,0.0,2.0,77,0.00,,,0.00,weatherlink.com 1.10,2013-04-17 13:08:00,
2013-04-17 09:23:00,68.5,60.0,30.15,SE,132,0.0,1.0,75,0.00,,,0.00,weatherlink.com 1.10,2013-04-17 13:23:00,
2013-04-17 09:38:00,68.2,60.0,30.16,SSE,147,2.0,2.0,76,0.00,,,0.00,weatherlink.com 1.10,2013-04-17 13:38:00,
2013-04-17 09:53:00,67.4,60.0,30.17,South,171,0.0,1.0,78,0.00,,,0.00,weatherlink.com 1.10,2013-04-17 13:53:00,
2013-04-17 10:08:00,67.1,61.0,30.18,WNW,286,1.0,3.0,81,0.00,,,0.00,weatherlink.com 1.10,2013-04-17 14:08:00,
2013-04-17 10:23:00,66.0,63.0,30.18,ENE,57,0.0,1.0,89,0.00,,,0.00,weatherlink.com 1.10,2013-04-17 14:23:00,
2013-04-17 10:38:00,65.6,63.0,30.18,ENE,76,0.0,2.0,90,0.00,,,0.00,weatherlink.com 1.10,2013-04-17 14:38:00,
2013-04-17 10:53:00,65.6,63.0,30.18,ENE,76,0.0,0.0,91,0.00,,,0.00,weatherlink.com 1.10,2013-04-17 14:53:00,
2013-04-17 11:08:00,65.6,63.0,30.18,ENE,76,0.0,1.0,91,0.00,,,0.00,weatherlink.com 1.10,2013-04-17 15:08:00,
2013-04-17 11:23:00,66.0,63.0,30.18,ENE,76,0.0,1.0,91,0.00,,,0.00,weatherlink.com 1.10,2013-04-17 15:23:00,
2013-04-17 11:38:00,66.0,63.0,30.18,ENE,76,0.0,1.0,90,0.00,,,0.00,weatherlink.com 1.10,2013-04-17 15:38:00,
2013-04-17 11:53:00,67.0,65.0,30.18,ENE,76,0.0,1.0,93,0.00,,,0.00,weatherlink.com 1.10,2013-04-17 15:53:00,
2013-04-17 12:08:00,68.3,66.0,30.18,ENE,76,0.0,1.0,92,0.00,,,0.00,weatherlink.com 1.10,2013-04-17 16:08:00,
2013-04-17 12:23:00,69.6,64.0,30.17,North,360,1.0,3.0,83,0.00,,,0.00,weatherlink.com 1.10,2013-04-17 16:23:00,
2013-04-17 12:38:00,71.4,64.0,30.17,ENE,72,0.0,2.0,76,0.00,,,0.00,weatherlink.com 1.10,2013-04-17 16:38:00,
2013-04-17 12:54:00,73.8,62.0,30.16,East,93,1.0,3.0,66,0.00,,,0.00,weatherlink.com 1.10,2013-04-17 16:54:00,
2013-04-17 13:09:00,76.0,63.0,30.16,South,177,1.0,2.0,65,0.00,,,0.00,weatherlink.com 1.10,2013-04-17 17:09:00,
2013-04-17 13:24:00,75.9,64.0,30.16,SSW,192,1.0,7.0,66,0.00,,,0.00,weatherlink.com 1.10,2013-04-17 17:24:00,
2013-04-17 13:39:00,74.6,64.0,30.15,SE,136,0.0,3.0,69,0.00,,,0.00,weatherlink.com 1.10,2013-04-17 17:39:00,
2013-04-17 13:54:00,75.0,63.0,30.15,SE,137,1.0,3.0,67,0.00,,,0.00,weatherlink.com 1.10,2013-04-17 17:54:00,
2013-04-17 14:09:00,74.6,63.0,30.14,ESE,117,2.0,6.0,67,0.00,,,0.00,weatherlink.com 1.10,2013-04-17 18:09:00,
2013-04-17 14:24:00,73.9,62.0,30.15,SSW,199,3.0,6.0,66,0.00,,,0.00,weatherlink.com 1.10,2013-04-17 18:24:00,
2013-04-17 14:39:00,73.9,63.0,30.15,SSW,193,1.0,3.0,68,0.00,,,0.00,weatherlink.com 1.10,2013-04-17 18:39:00,
2013-04-17 14:54:00,73.8,63.0,30.14,SSE,157,0.0,4.0,69,0.00,,,0.00,weatherlink.com 1.10,2013-04-17 18:54:00,
2013-04-17 15:09:00,73.4,61.0,30.13,ENE,76,1.0,3.0,66,0.00,,,0.00,weatherlink.com 1.10,2013-04-17 19:09:00,
2013-04-17 15:24:00,73.5,61.0,30.12,SSE,157,0.0,3.0,66,0.00,,,0.00,weatherlink.com 1.10,2013-04-17 19:24:00,
2013-04-17 15:39:00,74.3,62.0,30.11,SE,134,0.0,2.0,65,0.00,,,0.00,weatherlink.com 1.10,2013-04-17 19:39:00,
2013-04-17 15:54:00,75.8,62.0,30.11,ESE,111,1.0,3.0,63,0.00,,,0.00,weatherlink.com 1.10,2013-04-17 19:54:00,
2013-04-17 16:09:00,78.3,61.0,30.10,South,190,2.0,4.0,56,0.00,,,0.00,weatherlink.com 1.10,2013-04-17 20:09:00,
2013-04-17 16:24:00,79.6,61.0,30.10,SE,143,4.0,5.0,53,0.00,,,0.00,weatherlink.com 1.10,2013-04-17 20:24:00,
2013-04-17 16:39:00,80.2,61.0,30.10,SW,214,3.0,7.0,52,0.00,,,0.00,weatherlink.com 1.10,2013-04-17 20:39:00,
2013-04-17 16:54:00,80.4,62.0,30.10,ESE,120,0.0,3.0,54,0.00,,,0.00,weatherlink.com 1.10,2013-04-17 20:54:00,
2013-04-17 17:09:00,82.0,62.0,30.10,East,88,2.0,3.0,50,0.00,,,0.00,weatherlink.com 1.10,2013-04-17 21:09:00,
2013-04-17 17:24:00,81.8,61.0,30.10,South,181,2.0,3.0,50,0.00,,,0.00,weatherlink.com 1.10,2013-04-17 21:24:00,
2013-04-17 17:39:00,81.6,60.0,30.10,SSW,210,0.0,4.0,48,0.00,,,0.00,weatherlink.com 1.10,2013-04-17 21:39:00,
2013-04-17 17:54:00,81.0,61.0,30.10,SE,125,0.0,3.0,50,0.00,,,0.00,weatherlink.com 1.10,2013-04-17 21:54:00,
2013-04-17 18:09:00,81.8,60.0,30.10,SE,128,1.0,4.0,48,0.00,,,0.00,weatherlink.com 1.10,2013-04-17 22:09:00,
2013-04-17 18:24:00,79.7,59.0,30.10,SSW,203,1.0,4.0,50,0.00,,,0.00,weatherlink.com 1.10,2013-04-17 22:24:00,
2013-04-17 18:39:00,78.3,60.0,30.10,SSW,201,0.0,2.0,54,0.00,,,0.00,weatherlink.com 1.10,2013-04-17 22:39:00,
2013-04-17 18:54:00,77.4,62.0,30.10,SSW,201,0.0,1.0,59,0.00,,,0.00,weatherlink.com 1.10,2013-04-17 22:54:00,
2013-04-17 19:09:00,75.9,60.0,30.10,SSW,201,0.0,1.0,58,0.00,,,0.00,weatherlink.com 1.10,2013-04-17 23:09:00,
2013-04-17 19:24:00,75.1,60.0,30.10,SSW,201,0.0,0.0,59,0.00,,,0.00,weatherlink.com 1.10,2013-04-17 23:24:00,
2013-04-17 19:39:00,74.1,60.0,30.10,SSW,201,0.0,0.0,61,0.00,,,0.00,weatherlink.com 1.10,2013-04-17 23:39:00,
2013-04-17 19:54:00,73.0,59.0,30.10,SSW,201,0.0,0.0,62,0.00,,,0.00,weatherlink.com 1.10,2013-04-17 23:54:00,
2013-04-17 20:09:00,71.9,59.0,30.11,SSW,201,0.0,0.0,64,0.00,,,0.00,weatherlink.com 1.10,2013-04-18 00:09:00,
2013-04-17 20:24:00,71.2,59.0,30.11,SSW,201,0.0,1.0,66,0.00,,,0.00,weatherlink.com 1.10,2013-04-18 00:24:00,
2013-04-17 20:39:00,70.6,59.0,30.11,SSW,201,0.0,1.0,67,0.00,,,0.00,weatherlink.com 1.10,2013-04-18 00:39:00,
2013-04-17 20:54:00,70.0,59.0,30.11,SSW,200,0.0,1.0,68,0.00,,,0.00,weatherlink.com 1.10,2013-04-18 00:54:00,
2013-04-17 21:09:00,69.6,59.0,30.11,SSW,200,0.0,0.0,69,0.00,,,0.00,weatherlink.com 1.10,2013-04-18 01:09:00,
2013-04-17 21:24:00,69.1,59.0,30.11,SSW,200,0.0,0.0,69,0.00,,,0.00,weatherlink.com 1.10,2013-04-18 01:24:00,
2013-04-17 21:54:00,67.6,59.0,30.12,SSW,200,0.0,1.0,73,0.00,,,0.00,weatherlink.com 1.10,2013-04-18 01:54:00,
2013-04-17 22:09:00,67.0,58.0,30.12,SSW,200,0.0,0.0,74,0.00,,,0.00,weatherlink.com 1.10,2013-04-18 02:09:00,
2013-04-17 22:24:00,66.5,58.0,30.12,SSW,200,0.0,0.0,75,0.00,,,0.00,weatherlink.com 1.10,2013-04-18 02:24:00,
2013-04-17 22:39:00,66.3,59.0,30.12,SSW,200,0.0,0.0,76,0.01,,,0.01,weatherlink.com 1.10,2013-04-18 02:39:00,
2013-04-17 22:54:00,66.0,59.0,30.12,SSW,200,0.0,0.0,77,0.01,,,0.01,weatherlink.com 1.10,2013-04-18 02:54:00,
2013-04-17 23:09:00,66.1,59.0,30.12,SSW,200,0.0,1.0,78,0.01,,,0.01,weatherlink.com 1.10,2013-04-18 03:09:00,
2013-04-17 23:24:00,66.0,59.0,30.11,SSW,200,0.0,1.0,79,0.01,,,0.01,weatherlink.com 1.10,2013-04-18 03:24:00,
2013-04-17 23:39:00,65.6,59.0,30.11,SSW,200,0.0,1.0,79,0.00,,,0.01,weatherlink.com 1.10,2013-04-18 03:39:00,
2013-04-17 23:54:00,65.4,59.0,30.11,SSW,200,0.0,1.0,80,0.00,,,0.01,weatherlink.com 1.10,2013-04-18 03:54:00,